Terminal Aerodrome Forecast
Issued by NWS

Home | Current Version | Previous Version | Text Only | Print | Product List | Glossary On
Versions: 1 2 3 4 5 6 7 8 9 10 11 12 13 14 15 16 17 18 19 20 21
000
FTUS45 KBYZ 231431 AAC
TAFLVM
TAF AMD
KLVM 231431Z 2315/2412 07015KT 1SM -SN BR OVC012
      TEMPO 2315/2318 3SM -SN SCT012 BKN020
     FM231800 06010KT 2SM -SN BR BKN015 OVC025
     FM240300 09007KT 6SM -SN BKN007=

USA.gov is the U.S. government's official web portal to all federal, state and local government web resources and services.